sensor_id;sensor_type;location;lat;lon;timestamp;P1;durP1;ratioP1;P2;durP2;ratioP2
19812;SDS011;10066;48.108;11.448;2023-05-27T00:01:44;11.83;;;6.80;;
19812;SDS011;10066;48.108;11.448;2023-05-27T00:04:12;12.03;;;6.60;;
19812;SDS011;10066;48.108;11.448;2023-05-27T00:06:39;11.97;;;6.43;;
19812;SDS011;10066;48.108;11.448;2023-05-27T00:09:08;13.47;;;7.57;;
19812;SDS011;10066;48.108;11.448;2023-05-27T00:11:36;10.27;;;6.77;;
19812;SDS011;10066;48.108;11.448;2023-05-27T00:14:05;13.23;;;7.03;;
19812;SDS011;10066;48.108;11.448;2023-05-27T00:16:32;12.50;;;6.67;;
19812;SDS011;10066;48.108;11.448;2023-05-27T00:19:03;9.57;;;6.30;;
19812;SDS011;10066;48.108;11.448;2023-05-27T00:21:31;11.93;;;6.70;;
19812;SDS011;10066;48.108;11.448;2023-05-27T00:23:59;11.50;;;7.10;;
19812;SDS011;10066;48.108;11.448;2023-05-27T00:26:27;11.43;;;7.07;;
19812;SDS011;10066;48.108;11.448;2023-05-27T00:28:54;10.27;;;6.33;;
19812;SDS011;10066;48.108;11.448;2023-05-27T00:31:21;10.00;;;6.37;;
19812;SDS011;10066;48.108;11.448;2023-05-27T00:33:48;13.53;;;6.77;;
19812;SDS011;10066;48.108;11.448;2023-05-27T00:36:16;11.80;;;7.37;;
19812;SDS011;10066;48.108;11.448;2023-05-27T00:38:43;11.97;;;7.10;;
19812;SDS011;10066;48.108;11.448;2023-05-27T00:41:11;10.77;;;7.30;;
19812;SDS011;10066;48.108;11.448;2023-05-27T00:43:38;8.57;;;6.37;;
19812;SDS011;10066;48.108;11.448;2023-05-27T00:46:05;11.83;;;7.07;;
19812;SDS011;10066;48.108;11.448;2023-05-27T00:48:32;9.87;;;7.43;;
19812;SDS011;10066;48.108;11.448;2023-05-27T00:51:00;12.00;;;7.00;;
19812;SDS011;10066;48.108;11.448;2023-05-27T00:53:30;9.83;;;7.13;;
19812;SDS011;10066;48.108;11.448;2023-05-27T00:56:03;11.77;;;7.37;;
19812;SDS011;10066;48.108;11.448;2023-05-27T00:58:31;12.17;;;7.47;;
19812;SDS011;10066;48.108;11.448;2023-05-27T01:00:58;12.83;;;7.80;;
19812;SDS011;10066;48.108;11.448;2023-05-27T01:03:25;11.93;;;7.90;;
19812;SDS011;10066;48.108;11.448;2023-05-27T01:05:54;11.23;;;7.67;;
19812;SDS011;10066;48.108;11.448;2023-05-27T01:08:37;12.33;;;8.03;;
19812;SDS011;10066;48.108;11.448;2023-05-27T01:11:12;10.03;;;7.10;;
19812;SDS011;10066;48.108;11.448;2023-05-27T01:13:48;10.33;;;7.23;;
19812;SDS011;10066;48.108;11.448;2023-05-27T01:16:20;15.57;;;8.00;;
19812;SDS011;10066;48.108;11.448;2023-05-27T01:18:56;11.10;;;7.73;;
19812;SDS011;10066;48.108;11.448;2023-05-27T01:21:29;13.90;;;7.83;;
19812;SDS011;10066;48.108;11.448;2023-05-27T01:24:03;11.07;;;7.80;;
19812;SDS011;10066;48.108;11.448;2023-05-27T01:26:31;12.13;;;7.83;;
19812;SDS011;10066;48.108;11.448;2023-05-27T01:28:58;12.67;;;8.17;;
19812;SDS011;10066;48.108;11.448;2023-05-27T01:31:27;13.40;;;8.47;;
19812;SDS011;10066;48.108;11.448;2023-05-27T01:34:01;13.10;;;8.07;;
19812;SDS011;10066;48.108;11.448;2023-05-27T01:36:33;11.37;;;8.20;;
19812;SDS011;10066;48.108;11.448;2023-05-27T01:39:06;11.03;;;7.70;;
19812;SDS011;10066;48.108;11.448;2023-05-27T01:41:37;12.53;;;8.30;;
19812;SDS011;10066;48.108;11.448;2023-05-27T01:44:06;13.83;;;8.20;;
19812;SDS011;10066;48.108;11.448;2023-05-27T01:46:35;16.47;;;8.30;;
19812;SDS011;10066;48.108;11.448;2023-05-27T01:49:11;15.10;;;7.80;;
19812;SDS011;10066;48.108;11.448;2023-05-27T01:51:38;11.60;;;8.30;;
19812;SDS011;10066;48.108;11.448;2023-05-27T01:54:08;12.50;;;7.90;;
19812;SDS011;10066;48.108;11.448;2023-05-27T01:56:38;11.30;;;8.07;;
19812;SDS011;10066;48.108;11.448;2023-05-27T01:59:07;13.03;;;7.80;;
19812;SDS011;10066;48.108;11.448;2023-05-27T02:01:34;10.80;;;8.33;;
19812;SDS011;10066;48.108;11.448;2023-05-27T02:04:01;16.03;;;8.47;;
19812;SDS011;10066;48.108;11.448;2023-05-27T02:06:29;13.93;;;8.37;;
19812;SDS011;10066;48.108;11.448;2023-05-27T02:08:57;13.63;;;8.53;;
19812;SDS011;10066;48.108;11.448;2023-05-27T02:11:26;12.23;;;8.30;;
19812;SDS011;10066;48.108;11.448;2023-05-27T02:13:53;16.07;;;8.90;;
19812;SDS011;10066;48.108;11.448;2023-05-27T02:16:21;10.87;;;8.43;;
19812;SDS011;10066;48.108;11.448;2023-05-27T02:18:48;11.13;;;7.63;;
19812;SDS011;10066;48.108;11.448;2023-05-27T02:21:15;12.57;;;7.93;;
19812;SDS011;10066;48.108;11.448;2023-05-27T02:23:42;17.90;;;8.53;;
19812;SDS011;10066;48.108;11.448;2023-05-27T02:26:09;15.63;;;8.33;;
19812;SDS011;10066;48.108;11.448;2023-05-27T02:28:38;9.43;;;7.10;;
19812;SDS011;10066;48.108;11.448;2023-05-27T02:31:05;14.77;;;8.67;;
19812;SDS011;10066;48.108;11.448;2023-05-27T02:33:33;10.70;;;7.67;;
19812;SDS011;10066;48.108;11.448;2023-05-27T02:36:00;12.57;;;8.50;;
19812;SDS011;10066;48.108;11.448;2023-05-27T02:38:27;12.00;;;8.57;;
19812;SDS011;10066;48.108;11.448;2023-05-27T02:40:54;12.60;;;8.43;;
19812;SDS011;10066;48.108;11.448;2023-05-27T02:43:21;10.90;;;8.20;;
19812;SDS011;10066;48.108;11.448;2023-05-27T02:45:50;13.13;;;8.40;;
19812;SDS011;10066;48.108;11.448;2023-05-27T02:48:19;12.90;;;8.13;;
19812;SDS011;10066;48.108;11.448;2023-05-27T02:50:47;12.60;;;8.60;;
19812;SDS011;10066;48.108;11.448;2023-05-27T02:53:15;11.73;;;8.33;;
19812;SDS011;10066;48.108;11.448;2023-05-27T02:55:42;11.43;;;8.07;;
19812;SDS011;10066;48.108;11.448;2023-05-27T02:58:09;12.60;;;8.00;;
19812;SDS011;10066;48.108;11.448;2023-05-27T03:00:36;16.23;;;8.83;;
19812;SDS011;10066;48.108;11.448;2023-05-27T03:03:06;11.30;;;8.43;;
19812;SDS011;10066;48.108;11.448;2023-05-27T03:05:34;14.60;;;8.77;;
19812;SDS011;10066;48.108;11.448;2023-05-27T03:08:01;15.03;;;9.20;;
19812;SDS011;10066;48.108;11.448;2023-05-27T03:10:31;11.73;;;8.57;;
19812;SDS011;10066;48.108;11.448;2023-05-27T03:13:01;10.40;;;7.97;;
19812;SDS011;10066;48.108;11.448;2023-05-27T03:15:28;13.27;;;8.37;;
19812;SDS011;10066;48.108;11.448;2023-05-27T03:17:56;11.17;;;8.17;;
19812;SDS011;10066;48.108;11.448;2023-05-27T03:20:26;11.60;;;8.20;;
19812;SDS011;10066;48.108;11.448;2023-05-27T03:22:59;18.37;;;8.87;;
19812;SDS011;10066;48.108;11.448;2023-05-27T03:25:27;13.63;;;8.83;;
19812;SDS011;10066;48.108;11.448;2023-05-27T03:27:55;12.97;;;8.33;;
19812;SDS011;10066;48.108;11.448;2023-05-27T03:30:25;13.03;;;9.10;;
19812;SDS011;10066;48.108;11.448;2023-05-27T03:32:53;16.33;;;9.50;;
19812;SDS011;10066;48.108;11.448;2023-05-27T03:35:22;12.70;;;8.87;;
19812;SDS011;10066;48.108;11.448;2023-05-27T03:37:52;12.13;;;8.23;;
19812;SDS011;10066;48.108;11.448;2023-05-27T03:40:22;16.10;;;9.37;;
19812;SDS011;10066;48.108;11.448;2023-05-27T03:42:50;11.60;;;9.00;;
19812;SDS011;10066;48.108;11.448;2023-05-27T03:45:17;14.50;;;9.67;;
19812;SDS011;10066;48.108;11.448;2023-05-27T03:47:44;13.23;;;9.93;;
19812;SDS011;10066;48.108;11.448;2023-05-27T03:50:16;15.70;;;9.47;;
19812;SDS011;10066;48.108;11.448;2023-05-27T03:52:46;13.83;;;8.50;;
19812;SDS011;10066;48.108;11.448;2023-05-27T03:55:20;11.97;;;8.80;;
19812;SDS011;10066;48.108;11.448;2023-05-27T03:57:48;14.57;;;8.67;;
19812;SDS011;10066;48.108;11.448;2023-05-27T04:00:19;11.77;;;8.73;;
19812;SDS011;10066;48.108;11.448;2023-05-27T04:02:51;18.57;;;9.70;;
19812;SDS011;10066;48.108;11.448;2023-05-27T04:05:18;12.70;;;9.50;;
19812;SDS011;10066;48.108;11.448;2023-05-27T04:07:48;13.03;;;8.37;;
19812;SDS011;10066;48.108;11.448;2023-05-27T04:10:16;13.87;;;8.53;;
19812;SDS011;10066;48.108;11.448;2023-05-27T04:12:45;16.13;;;8.43;;
19812;SDS011;10066;48.108;11.448;2023-05-27T04:15:12;14.10;;;8.57;;
19812;SDS011;10066;48.108;11.448;2023-05-27T04:17:39;14.90;;;8.40;;
19812;SDS011;10066;48.108;11.448;2023-05-27T04:20:09;12.43;;;8.87;;
19812;SDS011;10066;48.108;11.448;2023-05-27T04:22:42;14.30;;;8.70;;
19812;SDS011;10066;48.108;11.448;2023-05-27T04:25:11;12.00;;;8.70;;
19812;SDS011;10066;48.108;11.448;2023-05-27T04:27:38;13.33;;;8.30;;
19812;SDS011;10066;48.108;11.448;2023-05-27T04:30:07;12.73;;;9.07;;
19812;SDS011;10066;48.108;11.448;2023-05-27T04:32:38;14.97;;;8.40;;
19812;SDS011;10066;48.108;11.448;2023-05-27T04:35:06;11.40;;;8.27;;
19812;SDS011;10066;48.108;11.448;2023-05-27T04:37:34;12.87;;;7.97;;
19812;SDS011;10066;48.108;11.448;2023-05-27T04:40:02;12.40;;;8.87;;
19812;SDS011;10066;48.108;11.448;2023-05-27T04:42:31;13.07;;;7.93;;
19812;SDS011;10066;48.108;11.448;2023-05-27T04:45:03;13.47;;;7.93;;
19812;SDS011;10066;48.108;11.448;2023-05-27T04:47:33;11.20;;;7.60;;
19812;SDS011;10066;48.108;11.448;2023-05-27T04:50:02;9.03;;;7.50;;
19812;SDS011;10066;48.108;11.448;2023-05-27T04:52:32;11.20;;;6.87;;
19812;SDS011;10066;48.108;11.448;2023-05-27T04:55:02;11.60;;;6.93;;
19812;SDS011;10066;48.108;11.448;2023-05-27T04:57:29;12.03;;;7.20;;
19812;SDS011;10066;48.108;11.448;2023-05-27T04:59:56;10.17;;;7.07;;
19812;SDS011;10066;48.108;11.448;2023-05-27T05:02:45;12.97;;;6.97;;
19812;SDS011;10066;48.108;11.448;2023-05-27T05:05:13;12.57;;;6.97;;
19812;SDS011;10066;48.108;11.448;2023-05-27T05:07:42;10.97;;;6.87;;
19812;SDS011;10066;48.108;11.448;2023-05-27T05:10:09;10.73;;;7.37;;
19812;SDS011;10066;48.108;11.448;2023-05-27T05:12:37;11.13;;;7.17;;
19812;SDS011;10066;48.108;11.448;2023-05-27T05:15:06;14.70;;;6.93;;
19812;SDS011;10066;48.108;11.448;2023-05-27T05:17:33;9.63;;;6.70;;
19812;SDS011;10066;48.108;11.448;2023-05-27T05:20:01;13.03;;;6.27;;
19812;SDS011;10066;48.108;11.448;2023-05-27T05:22:31;10.87;;;6.77;;
19812;SDS011;10066;48.108;11.448;2023-05-27T05:24:58;10.60;;;6.57;;
19812;SDS011;10066;48.108;11.448;2023-05-27T05:27:26;11.37;;;6.90;;
19812;SDS011;10066;48.108;11.448;2023-05-27T05:29:54;13.80;;;6.30;;
19812;SDS011;10066;48.108;11.448;2023-05-27T05:32:22;9.10;;;6.40;;
19812;SDS011;10066;48.108;11.448;2023-05-27T05:34:49;9.93;;;6.00;;
19812;SDS011;10066;48.108;11.448;2023-05-27T05:37:25;12.27;;;6.00;;
19812;SDS011;10066;48.108;11.448;2023-05-27T05:39:55;9.37;;;5.63;;
19812;SDS011;10066;48.108;11.448;2023-05-27T05:42:22;10.10;;;5.93;;
19812;SDS011;10066;48.108;11.448;2023-05-27T05:44:50;11.50;;;6.00;;
19812;SDS011;10066;48.108;11.448;2023-05-27T05:47:18;10.90;;;5.70;;
19812;SDS011;10066;48.108;11.448;2023-05-27T05:49:45;11.53;;;5.30;;
19812;SDS011;10066;48.108;11.448;2023-05-27T05:52:17;7.83;;;4.60;;
19812;SDS011;10066;48.108;11.448;2023-05-27T05:54:46;12.57;;;5.87;;
19812;SDS011;10066;48.108;11.448;2023-05-27T05:57:13;10.33;;;5.50;;
19812;SDS011;10066;48.108;11.448;2023-05-27T05:59:40;10.40;;;5.47;;
19812;SDS011;10066;48.108;11.448;2023-05-27T06:02:07;12.73;;;5.57;;
19812;SDS011;10066;48.108;11.448;2023-05-27T06:04:35;10.47;;;5.50;;
19812;SDS011;10066;48.108;11.448;2023-05-27T06:07:02;10.57;;;5.37;;
19812;SDS011;10066;48.108;11.448;2023-05-27T06:09:30;10.50;;;4.60;;
19812;SDS011;10066;48.108;11.448;2023-05-27T06:11:59;9.87;;;4.73;;
19812;SDS011;10066;48.108;11.448;2023-05-27T06:14:27;13.90;;;5.40;;
19812;SDS011;10066;48.108;11.448;2023-05-27T06:16:54;11.17;;;4.63;;
19812;SDS011;10066;48.108;11.448;2023-05-27T06:19:21;10.30;;;4.67;;
19812;SDS011;10066;48.108;11.448;2023-05-27T06:21:49;8.93;;;4.87;;
19812;SDS011;10066;48.108;11.448;2023-05-27T06:24:20;11.13;;;4.90;;
19812;SDS011;10066;48.108;11.448;2023-05-27T06:26:59;9.23;;;4.63;;
19812;SDS011;10066;48.108;11.448;2023-05-27T06:29:27;7.70;;;4.13;;
19812;SDS011;10066;48.108;11.448;2023-05-27T06:31:55;11.90;;;4.43;;
19812;SDS011;10066;48.108;11.448;2023-05-27T06:34:24;9.87;;;4.50;;
19812;SDS011;10066;48.108;11.448;2023-05-27T06:36:51;10.00;;;4.97;;
19812;SDS011;10066;48.108;11.448;2023-05-27T06:39:22;8.90;;;4.50;;
19812;SDS011;10066;48.108;11.448;2023-05-27T06:41:50;9.00;;;4.30;;
19812;SDS011;10066;48.108;11.448;2023-05-27T06:44:19;11.90;;;4.33;;
19812;SDS011;10066;48.108;11.448;2023-05-27T06:46:48;7.83;;;4.00;;
19812;SDS011;10066;48.108;11.448;2023-05-27T06:49:21;8.87;;;3.80;;
19812;SDS011;10066;48.108;11.448;2023-05-27T06:51:49;8.20;;;4.10;;
19812;SDS011;10066;48.108;11.448;2023-05-27T06:54:16;8.47;;;4.03;;
19812;SDS011;10066;48.108;11.448;2023-05-27T06:56:43;7.37;;;3.93;;
19812;SDS011;10066;48.108;11.448;2023-05-27T06:59:10;12.77;;;4.40;;
19812;SDS011;10066;48.108;11.448;2023-05-27T07:01:43;9.53;;;3.80;;
19812;SDS011;10066;48.108;11.448;2023-05-27T07:04:10;8.43;;;3.87;;
19812;SDS011;10066;48.108;11.448;2023-05-27T07:06:43;11.50;;;4.47;;
19812;SDS011;10066;48.108;11.448;2023-05-27T07:09:10;8.00;;;3.80;;
19812;SDS011;10066;48.108;11.448;2023-05-27T07:11:38;12.07;;;4.07;;
19812;SDS011;10066;48.108;11.448;2023-05-27T07:14:05;8.77;;;3.80;;
19812;SDS011;10066;48.108;11.448;2023-05-27T07:16:34;7.40;;;3.80;;
19812;SDS011;10066;48.108;11.448;2023-05-27T07:19:05;7.53;;;3.50;;
19812;SDS011;10066;48.108;11.448;2023-05-27T07:21:32;14.50;;;4.10;;
19812;SDS011;10066;48.108;11.448;2023-05-27T07:23:59;7.90;;;3.57;;
19812;SDS011;10066;48.108;11.448;2023-05-27T07:26:30;7.80;;;3.23;;
19812;SDS011;10066;48.108;11.448;2023-05-27T07:28:57;12.40;;;3.80;;
19812;SDS011;10066;48.108;11.448;2023-05-27T07:31:31;9.97;;;4.13;;
19812;SDS011;10066;48.108;11.448;2023-05-27T07:33:58;9.77;;;3.73;;
19812;SDS011;10066;48.108;11.448;2023-05-27T07:36:37;8.43;;;3.70;;
19812;SDS011;10066;48.108;11.448;2023-05-27T07:39:19;10.73;;;3.80;;
19812;SDS011;10066;48.108;11.448;2023-05-27T07:41:47;8.57;;;3.60;;
19812;SDS011;10066;48.108;11.448;2023-05-27T07:44:14;8.03;;;3.70;;
19812;SDS011;10066;48.108;11.448;2023-05-27T07:46:41;9.87;;;3.90;;
19812;SDS011;10066;48.108;11.448;2023-05-27T07:49:12;9.50;;;3.20;;
19812;SDS011;10066;48.108;11.448;2023-05-27T07:51:44;9.47;;;3.63;;
19812;SDS011;10066;48.108;11.448;2023-05-27T07:54:11;9.40;;;4.30;;
19812;SDS011;10066;48.108;11.448;2023-05-27T07:56:41;12.10;;;4.60;;
19812;SDS011;10066;48.108;11.448;2023-05-27T07:59:16;10.47;;;3.43;;
19812;SDS011;10066;48.108;11.448;2023-05-27T08:01:43;12.43;;;3.50;;
19812;SDS011;10066;48.108;11.448;2023-05-27T08:04:15;10.70;;;3.80;;
19812;SDS011;10066;48.108;11.448;2023-05-27T08:06:47;12.73;;;4.20;;
19812;SDS011;10066;48.108;11.448;2023-05-27T08:09:17;8.97;;;3.43;;
19812;SDS011;10066;48.108;11.448;2023-05-27T08:11:50;11.90;;;3.57;;
19812;SDS011;10066;48.108;11.448;2023-05-27T08:14:20;11.90;;;4.17;;
19812;SDS011;10066;48.108;11.448;2023-05-27T08:16:53;11.57;;;3.70;;
19812;SDS011;10066;48.108;11.448;2023-05-27T08:19:22;10.63;;;4.23;;
19812;SDS011;10066;48.108;11.448;2023-05-27T08:21:57;9.50;;;3.07;;
19812;SDS011;10066;48.108;11.448;2023-05-27T08:24:34;9.10;;;3.90;;
19812;SDS011;10066;48.108;11.448;2023-05-27T08:27:12;10.03;;;3.80;;
19812;SDS011;10066;48.108;11.448;2023-05-27T08:29:46;10.10;;;4.00;;
19812;SDS011;10066;48.108;11.448;2023-05-27T08:32:14;8.97;;;3.77;;
19812;SDS011;10066;48.108;11.448;2023-05-27T08:34:51;10.50;;;3.80;;
19812;SDS011;10066;48.108;11.448;2023-05-27T08:37:20;11.10;;;4.23;;
19812;SDS011;10066;48.108;11.448;2023-05-27T08:39:49;8.83;;;4.00;;
19812;SDS011;10066;48.108;11.448;2023-05-27T08:42:16;11.93;;;4.20;;
19812;SDS011;10066;48.108;11.448;2023-05-27T08:44:51;9.93;;;4.07;;
19812;SDS011;10066;48.108;11.448;2023-05-27T08:47:24;10.73;;;4.53;;
19812;SDS011;10066;48.108;11.448;2023-05-27T08:49:55;8.27;;;4.03;;
19812;SDS011;10066;48.108;11.448;2023-05-27T08:52:27;10.60;;;4.30;;
19812;SDS011;10066;48.108;11.448;2023-05-27T08:54:57;8.43;;;3.90;;
19812;SDS011;10066;48.108;11.448;2023-05-27T08:57:27;11.03;;;4.10;;
19812;SDS011;10066;48.108;11.448;2023-05-27T08:59:55;9.57;;;4.83;;
19812;SDS011;10066;48.108;11.448;2023-05-27T09:02:26;10.43;;;4.50;;
19812;SDS011;10066;48.108;11.448;2023-05-27T09:04:59;14.57;;;4.00;;
19812;SDS011;10066;48.108;11.448;2023-05-27T09:07:36;29.93;;;4.87;;
19812;SDS011;10066;48.108;11.448;2023-05-27T09:10:06;9.93;;;4.13;;
19812;SDS011;10066;48.108;11.448;2023-05-27T09:12:41;14.33;;;4.60;;
19812;SDS011;10066;48.108;11.448;2023-05-27T09:15:09;11.57;;;4.30;;
19812;SDS011;10066;48.108;11.448;2023-05-27T09:17:43;8.80;;;4.63;;
19812;SDS011;10066;48.108;11.448;2023-05-27T09:20:11;9.83;;;4.67;;
19812;SDS011;10066;48.108;11.448;2023-05-27T09:22:57;10.93;;;4.37;;
19812;SDS011;10066;48.108;11.448;2023-05-27T09:25:25;11.90;;;3.23;;
19812;SDS011;10066;48.108;11.448;2023-05-27T09:28:04;11.00;;;4.53;;
19812;SDS011;10066;48.108;11.448;2023-05-27T09:30:32;8.80;;;4.60;;
19812;SDS011;10066;48.108;11.448;2023-05-27T09:33:00;9.83;;;5.00;;
19812;SDS011;10066;48.108;11.448;2023-05-27T09:35:36;12.10;;;5.13;;
19812;SDS011;10066;48.108;11.448;2023-05-27T09:38:10;10.73;;;4.50;;
19812;SDS011;10066;48.108;11.448;2023-05-27T09:40:43;8.90;;;4.60;;
19812;SDS011;10066;48.108;11.448;2023-05-27T09:43:12;8.70;;;4.40;;
19812;SDS011;10066;48.108;11.448;2023-05-27T09:45:40;9.77;;;4.67;;
19812;SDS011;10066;48.108;11.448;2023-05-27T09:48:07;8.47;;;4.80;;
19812;SDS011;10066;48.108;11.448;2023-05-27T09:50:39;11.30;;;4.57;;
19812;SDS011;10066;48.108;11.448;2023-05-27T09:53:22;12.77;;;4.77;;
19812;SDS011;10066;48.108;11.448;2023-05-27T09:55:53;7.03;;;4.10;;
19812;SDS011;10066;48.108;11.448;2023-05-27T09:58:26;12.43;;;4.77;;
19812;SDS011;10066;48.108;11.448;2023-05-27T10:01:06;6.63;;;3.47;;
19812;SDS011;10066;48.108;11.448;2023-05-27T10:03:34;8.80;;;4.60;;
19812;SDS011;10066;48.108;11.448;2023-05-27T10:06:07;9.57;;;4.80;;
19812;SDS011;10066;48.108;11.448;2023-05-27T10:08:53;7.47;;;3.50;;
19812;SDS011;10066;48.108;11.448;2023-05-27T10:11:30;11.53;;;4.47;;
19812;SDS011;10066;48.108;11.448;2023-05-27T10:14:00;10.40;;;4.40;;
19812;SDS011;10066;48.108;11.448;2023-05-27T10:16:38;10.03;;;4.87;;
19812;SDS011;10066;48.108;11.448;2023-05-27T10:19:23;9.73;;;4.27;;
19812;SDS011;10066;48.108;11.448;2023-05-27T10:24:47;8.77;;;4.07;;
19812;SDS011;10066;48.108;11.448;2023-05-27T10:27:15;8.03;;;4.53;;
19812;SDS011;10066;48.108;11.448;2023-05-27T10:29:42;8.37;;;3.43;;
19812;SDS011;10066;48.108;11.448;2023-05-27T10:32:10;9.67;;;4.10;;
19812;SDS011;10066;48.108;11.448;2023-05-27T10:34:38;6.60;;;3.80;;
19812;SDS011;10066;48.108;11.448;2023-05-27T10:37:08;8.43;;;4.23;;
19812;SDS011;10066;48.108;11.448;2023-05-27T10:39:38;6.77;;;4.00;;
19812;SDS011;10066;48.108;11.448;2023-05-27T10:42:10;8.87;;;3.87;;
19812;SDS011;10066;48.108;11.448;2023-05-27T10:44:47;9.10;;;4.30;;
19812;SDS011;10066;48.108;11.448;2023-05-27T10:47:27;10.33;;;4.17;;
19812;SDS011;10066;48.108;11.448;2023-05-27T10:50:08;7.53;;;4.43;;
19812;SDS011;10066;48.108;11.448;2023-05-27T10:52:38;10.60;;;4.07;;
19812;SDS011;10066;48.108;11.448;2023-05-27T10:55:08;6.57;;;3.80;;
19812;SDS011;10066;48.108;11.448;2023-05-27T10:57:37;7.87;;;4.27;;
19812;SDS011;10066;48.108;11.448;2023-05-27T11:00:04;9.53;;;4.13;;
19812;SDS011;10066;48.108;11.448;2023-05-27T11:02:34;10.83;;;4.50;;
19812;SDS011;10066;48.108;11.448;2023-05-27T11:05:08;7.97;;;3.47;;
19812;SDS011;10066;48.108;11.448;2023-05-27T11:07:36;11.87;;;4.57;;
19812;SDS011;10066;48.108;11.448;2023-05-27T11:10:05;9.53;;;4.30;;
19812;SDS011;10066;48.108;11.448;2023-05-27T11:12:34;5.90;;;2.43;;
19812;SDS011;10066;48.108;11.448;2023-05-27T11:15:06;9.83;;;4.40;;
19812;SDS011;10066;48.108;11.448;2023-05-27T11:17:33;6.20;;;3.27;;
19812;SDS011;10066;48.108;11.448;2023-05-27T11:20:02;6.93;;;3.57;;
19812;SDS011;10066;48.108;11.448;2023-05-27T11:22:32;7.90;;;3.80;;
19812;SDS011;10066;48.108;11.448;2023-05-27T11:25:03;5.73;;;3.43;;
19812;SDS011;10066;48.108;11.448;2023-05-27T11:27:35;7.03;;;3.27;;
19812;SDS011;10066;48.108;11.448;2023-05-27T11:30:08;6.87;;;3.77;;
19812;SDS011;10066;48.108;11.448;2023-05-27T11:32:39;8.13;;;4.00;;
19812;SDS011;10066;48.108;11.448;2023-05-27T11:35:12;8.50;;;3.90;;
19812;SDS011;10066;48.108;11.448;2023-05-27T11:37:40;6.73;;;3.47;;
19812;SDS011;10066;48.108;11.448;2023-05-27T11:40:10;10.27;;;3.30;;
19812;SDS011;10066;48.108;11.448;2023-05-27T11:42:42;12.40;;;4.13;;
19812;SDS011;10066;48.108;11.448;2023-05-27T11:45:15;5.73;;;3.07;;
19812;SDS011;10066;48.108;11.448;2023-05-27T11:47:43;5.20;;;2.80;;
19812;SDS011;10066;48.108;11.448;2023-05-27T11:50:13;14.77;;;3.83;;
19812;SDS011;10066;48.108;11.448;2023-05-27T11:52:51;11.60;;;3.90;;
19812;SDS011;10066;48.108;11.448;2023-05-27T11:55:21;9.80;;;3.90;;
19812;SDS011;10066;48.108;11.448;2023-05-27T11:57:48;4.00;;;2.47;;
19812;SDS011;10066;48.108;11.448;2023-05-27T12:00:17;9.50;;;3.53;;
19812;SDS011;10066;48.108;11.448;2023-05-27T12:02:44;9.70;;;3.93;;
19812;SDS011;10066;48.108;11.448;2023-05-27T12:05:11;6.83;;;2.83;;
19812;SDS011;10066;48.108;11.448;2023-05-27T12:07:38;10.77;;;4.20;;
19812;SDS011;10066;48.108;11.448;2023-05-27T12:10:06;5.37;;;2.73;;
19812;SDS011;10066;48.108;11.448;2023-05-27T12:12:34;8.67;;;3.60;;
19812;SDS011;10066;48.108;11.448;2023-05-27T12:15:03;10.17;;;3.60;;
19812;SDS011;10066;48.108;11.448;2023-05-27T12:17:32;9.70;;;3.53;;
19812;SDS011;10066;48.108;11.448;2023-05-27T12:19:59;6.70;;;3.20;;
19812;SDS011;10066;48.108;11.448;2023-05-27T12:22:26;6.97;;;3.77;;
19812;SDS011;10066;48.108;11.448;2023-05-27T12:24:53;6.03;;;3.50;;
19812;SDS011;10066;48.108;11.448;2023-05-27T12:27:20;7.67;;;3.47;;
19812;SDS011;10066;48.108;11.448;2023-05-27T12:29:47;5.13;;;2.20;;
19812;SDS011;10066;48.108;11.448;2023-05-27T12:32:14;8.10;;;3.73;;
19812;SDS011;10066;48.108;11.448;2023-05-27T12:34:42;8.83;;;3.80;;
19812;SDS011;10066;48.108;11.448;2023-05-27T12:37:10;8.83;;;3.83;;
19812;SDS011;10066;48.108;11.448;2023-05-27T12:39:36;5.90;;;3.33;;
19812;SDS011;10066;48.108;11.448;2023-05-27T12:42:04;7.03;;;3.63;;
19812;SDS011;10066;48.108;11.448;2023-05-27T12:44:31;8.13;;;3.50;;
19812;SDS011;10066;48.108;11.448;2023-05-27T12:46:58;7.43;;;3.03;;
19812;SDS011;10066;48.108;11.448;2023-05-27T12:49:28;7.53;;;3.67;;
19812;SDS011;10066;48.108;11.448;2023-05-27T12:51:56;7.43;;;3.53;;
19812;SDS011;10066;48.108;11.448;2023-05-27T12:54:23;8.83;;;3.73;;
19812;SDS011;10066;48.108;11.448;2023-05-27T12:56:50;8.57;;;2.90;;
19812;SDS011;10066;48.108;11.448;2023-05-27T12:59:17;7.03;;;2.80;;
19812;SDS011;10066;48.108;11.448;2023-05-27T13:01:44;6.80;;;3.03;;
19812;SDS011;10066;48.108;11.448;2023-05-27T13:04:11;9.00;;;3.80;;
19812;SDS011;10066;48.108;11.448;2023-05-27T13:06:38;6.27;;;3.30;;
19812;SDS011;10066;48.108;11.448;2023-05-27T13:09:06;5.60;;;3.50;;
19812;SDS011;10066;48.108;11.448;2023-05-27T13:11:33;6.50;;;3.07;;
19812;SDS011;10066;48.108;11.448;2023-05-27T13:14:00;6.10;;;3.50;;
19812;SDS011;10066;48.108;11.448;2023-05-27T13:16:27;5.73;;;3.53;;
19812;SDS011;10066;48.108;11.448;2023-05-27T13:18:55;8.83;;;3.23;;
19812;SDS011;10066;48.108;11.448;2023-05-27T13:21:22;8.10;;;3.80;;
19812;SDS011;10066;48.108;11.448;2023-05-27T13:23:49;11.43;;;3.07;;
19812;SDS011;10066;48.108;11.448;2023-05-27T13:26:17;8.67;;;4.00;;
19812;SDS011;10066;48.108;11.448;2023-05-27T13:28:45;7.03;;;3.30;;
19812;SDS011;10066;48.108;11.448;2023-05-27T13:31:12;5.67;;;3.23;;
19812;SDS011;10066;48.108;11.448;2023-05-27T13:33:40;5.70;;;3.10;;
19812;SDS011;10066;48.108;11.448;2023-05-27T13:36:07;8.43;;;3.53;;
19812;SDS011;10066;48.108;11.448;2023-05-27T13:38:34;9.17;;;3.97;;
19812;SDS011;10066;48.108;11.448;2023-05-27T13:41:01;7.37;;;3.83;;
19812;SDS011;10066;48.108;11.448;2023-05-27T13:43:30;4.87;;;2.90;;
19812;SDS011;10066;48.108;11.448;2023-05-27T13:45:57;10.13;;;3.50;;
19812;SDS011;10066;48.108;11.448;2023-05-27T13:48:24;6.27;;;3.60;;
19812;SDS011;10066;48.108;11.448;2023-05-27T13:50:51;9.33;;;3.37;;
19812;SDS011;10066;48.108;11.448;2023-05-27T13:53:23;7.10;;;3.57;;
19812;SDS011;10066;48.108;11.448;2023-05-27T13:55:50;8.37;;;3.93;;
19812;SDS011;10066;48.108;11.448;2023-05-27T13:58:17;9.47;;;3.60;;
19812;SDS011;10066;48.108;11.448;2023-05-27T14:00:45;6.30;;;3.30;;
19812;SDS011;10066;48.108;11.448;2023-05-27T14:03:12;7.37;;;3.20;;
19812;SDS011;10066;48.108;11.448;2023-05-27T14:05:39;7.00;;;3.47;;
19812;SDS011;10066;48.108;11.448;2023-05-27T14:08:06;8.13;;;3.40;;
19812;SDS011;10066;48.108;11.448;2023-05-27T14:10:34;10.10;;;3.20;;
19812;SDS011;10066;48.108;11.448;2023-05-27T14:13:01;8.00;;;3.53;;
19812;SDS011;10066;48.108;11.448;2023-05-27T14:15:28;9.73;;;3.77;;
19812;SDS011;10066;48.108;11.448;2023-05-27T14:17:57;4.40;;;2.90;;
19812;SDS011;10066;48.108;11.448;2023-05-27T14:20:25;8.60;;;3.17;;
19812;SDS011;10066;48.108;11.448;2023-05-27T14:22:53;8.77;;;3.23;;
19812;SDS011;10066;48.108;11.448;2023-05-27T14:25:20;7.27;;;3.07;;
19812;SDS011;10066;48.108;11.448;2023-05-27T14:27:48;9.10;;;3.50;;
19812;SDS011;10066;48.108;11.448;2023-05-27T14:30:15;10.20;;;3.10;;
19812;SDS011;10066;48.108;11.448;2023-05-27T14:32:43;8.20;;;3.53;;
19812;SDS011;10066;48.108;11.448;2023-05-27T14:35:11;10.17;;;2.97;;
19812;SDS011;10066;48.108;11.448;2023-05-27T14:37:38;7.90;;;3.10;;
19812;SDS011;10066;48.108;11.448;2023-05-27T14:40:06;6.63;;;2.60;;
19812;SDS011;10066;48.108;11.448;2023-05-27T14:42:34;5.63;;;2.27;;
19812;SDS011;10066;48.108;11.448;2023-05-27T14:45:01;5.37;;;3.13;;